sensor_id;sensor_type;location;lat;lon;timestamp;P1;durP1;ratioP1;P2;durP2;ratioP2
24279;SDS011;12395;42.808;23.408;2022-12-20T00:00:57;12.40;;;5.87;;
24279;SDS011;12395;42.808;23.408;2022-12-20T00:03:22;13.30;;;6.30;;
24279;SDS011;12395;42.808;23.408;2022-12-20T00:05:48;13.13;;;6.33;;
24279;SDS011;12395;42.808;23.408;2022-12-20T00:08:13;11.93;;;5.67;;
24279;SDS011;12395;42.808;23.408;2022-12-20T00:10:40;13.83;;;5.93;;
24279;SDS011;12395;42.808;23.408;2022-12-20T00:13:07;13.60;;;5.67;;
24279;SDS011;12395;42.808;23.408;2022-12-20T00:15:33;12.17;;;5.43;;
24279;SDS011;12395;42.808;23.408;2022-12-20T00:17:59;11.00;;;5.33;;
24279;SDS011;12395;42.808;23.408;2022-12-20T00:20:25;11.20;;;5.07;;
24279;SDS011;12395;42.808;23.408;2022-12-20T00:22:51;11.97;;;5.50;;
24279;SDS011;12395;42.808;23.408;2022-12-20T00:25:17;14.47;;;6.10;;
24279;SDS011;12395;42.808;23.408;2022-12-20T00:27:44;12.85;;;5.97;;
24279;SDS011;12395;42.808;23.408;2022-12-20T00:30:09;13.17;;;6.27;;
24279;SDS011;12395;42.808;23.408;2022-12-20T00:32:35;14.53;;;6.40;;
24279;SDS011;12395;42.808;23.408;2022-12-20T00:35:00;15.83;;;7.10;;
24279;SDS011;12395;42.808;23.408;2022-12-20T00:37:26;16.43;;;6.53;;
24279;SDS011;12395;42.808;23.408;2022-12-20T00:39:51;14.50;;;6.70;;
24279;SDS011;12395;42.808;23.408;2022-12-20T00:42:16;18.70;;;9.03;;
24279;SDS011;12395;42.808;23.408;2022-12-20T00:44:42;16.83;;;7.27;;
24279;SDS011;12395;42.808;23.408;2022-12-20T00:47:07;16.47;;;7.40;;
24279;SDS011;12395;42.808;23.408;2022-12-20T00:49:33;15.10;;;6.47;;
24279;SDS011;12395;42.808;23.408;2022-12-20T00:51:58;13.80;;;6.07;;
24279;SDS011;12395;42.808;23.408;2022-12-20T00:54:23;13.77;;;6.37;;
24279;SDS011;12395;42.808;23.408;2022-12-20T00:56:49;14.30;;;6.53;;
24279;SDS011;12395;42.808;23.408;2022-12-20T00:59:14;14.17;;;6.73;;
24279;SDS011;12395;42.808;23.408;2022-12-20T01:01:40;12.77;;;6.07;;
24279;SDS011;12395;42.808;23.408;2022-12-20T01:04:05;13.47;;;6.50;;
24279;SDS011;12395;42.808;23.408;2022-12-20T01:06:31;14.40;;;6.23;;
24279;SDS011;12395;42.808;23.408;2022-12-20T01:08:57;13.60;;;6.37;;
24279;SDS011;12395;42.808;23.408;2022-12-20T01:11:24;14.43;;;6.40;;
24279;SDS011;12395;42.808;23.408;2022-12-20T01:13:52;14.10;;;5.77;;
24279;SDS011;12395;42.808;23.408;2022-12-20T01:16:24;13.27;;;6.53;;
24279;SDS011;12395;42.808;23.408;2022-12-20T01:18:54;15.17;;;6.37;;
24279;SDS011;12395;42.808;23.408;2022-12-20T01:21:20;14.67;;;6.20;;
24279;SDS011;12395;42.808;23.408;2022-12-20T01:23:47;16.05;;;6.75;;
24279;SDS011;12395;42.808;23.408;2022-12-20T01:26:14;14.37;;;6.40;;
24279;SDS011;12395;42.808;23.408;2022-12-20T01:28:42;14.03;;;6.23;;
24279;SDS011;12395;42.808;23.408;2022-12-20T01:31:10;13.80;;;6.20;;
24279;SDS011;12395;42.808;23.408;2022-12-20T01:33:37;13.90;;;6.30;;
24279;SDS011;12395;42.808;23.408;2022-12-20T01:36:13;15.80;;;7.30;;
24279;SDS011;12395;42.808;23.408;2022-12-20T01:38:39;16.67;;;7.13;;
24279;SDS011;12395;42.808;23.408;2022-12-20T01:41:04;16.20;;;7.27;;
24279;SDS011;12395;42.808;23.408;2022-12-20T01:46:17;13.83;;;6.33;;
24279;SDS011;12395;42.808;23.408;2022-12-20T01:48:46;16.02;;;6.60;;
24279;SDS011;12395;42.808;23.408;2022-12-20T01:51:18;13.93;;;6.40;;
24279;SDS011;12395;42.808;23.408;2022-12-20T01:53:43;14.70;;;6.87;;
24279;SDS011;12395;42.808;23.408;2022-12-20T01:56:10;16.10;;;6.80;;
24279;SDS011;12395;42.808;23.408;2022-12-20T01:58:36;15.23;;;6.90;;
24279;SDS011;12395;42.808;23.408;2022-12-20T02:01:03;17.65;;;7.03;;
24279;SDS011;12395;42.808;23.408;2022-12-20T02:03:28;13.53;;;6.60;;
24279;SDS011;12395;42.808;23.408;2022-12-20T02:05:56;13.27;;;6.50;;
24279;SDS011;12395;42.808;23.408;2022-12-20T02:08:21;14.20;;;6.60;;
24279;SDS011;12395;42.808;23.408;2022-12-20T02:13:35;14.03;;;6.80;;
24279;SDS011;12395;42.808;23.408;2022-12-20T02:16:12;15.07;;;7.00;;
24279;SDS011;12395;42.808;23.408;2022-12-20T02:18:45;15.57;;;6.60;;
24279;SDS011;12395;42.808;23.408;2022-12-20T02:21:30;15.67;;;7.23;;
24279;SDS011;12395;42.808;23.408;2022-12-20T02:24:16;15.73;;;7.00;;
24279;SDS011;12395;42.808;23.408;2022-12-20T02:27:09;14.90;;;6.70;;
24279;SDS011;12395;42.808;23.408;2022-12-20T02:32:30;15.10;;;6.77;;
24279;SDS011;12395;42.808;23.408;2022-12-20T02:35:01;15.60;;;7.07;;
24279;SDS011;12395;42.808;23.408;2022-12-20T02:37:28;12.45;;;6.15;;
24279;SDS011;12395;42.808;23.408;2022-12-20T02:39:54;14.60;;;6.80;;
24279;SDS011;12395;42.808;23.408;2022-12-20T02:42:20;14.07;;;6.37;;
24279;SDS011;12395;42.808;23.408;2022-12-20T02:45:05;12.67;;;6.30;;
24279;SDS011;12395;42.808;23.408;2022-12-20T02:47:49;14.47;;;6.20;;
24279;SDS011;12395;42.808;23.408;2022-12-20T02:50:44;13.07;;;5.77;;
24279;SDS011;12395;42.808;23.408;2022-12-20T02:53:13;12.00;;;5.33;;
24279;SDS011;12395;42.808;23.408;2022-12-20T02:58:10;17.07;;;6.17;;
24279;SDS011;12395;42.808;23.408;2022-12-20T03:01:01;12.37;;;5.73;;
24279;SDS011;12395;42.808;23.408;2022-12-20T03:03:32;12.00;;;5.83;;
24279;SDS011;12395;42.808;23.408;2022-12-20T03:05:59;12.63;;;5.90;;
24279;SDS011;12395;42.808;23.408;2022-12-20T03:08:24;13.30;;;6.07;;
24279;SDS011;12395;42.808;23.408;2022-12-20T03:10:51;12.93;;;6.40;;
24279;SDS011;12395;42.808;23.408;2022-12-20T03:13:18;12.97;;;6.07;;
24279;SDS011;12395;42.808;23.408;2022-12-20T03:15:44;12.90;;;6.30;;
24279;SDS011;12395;42.808;23.408;2022-12-20T03:18:09;12.43;;;5.80;;
24279;SDS011;12395;42.808;23.408;2022-12-20T03:20:35;12.70;;;6.03;;
24279;SDS011;12395;42.808;23.408;2022-12-20T03:23:00;13.93;;;6.23;;
24279;SDS011;12395;42.808;23.408;2022-12-20T03:25:26;12.37;;;5.97;;
24279;SDS011;12395;42.808;23.408;2022-12-20T03:27:52;12.53;;;5.73;;
24279;SDS011;12395;42.808;23.408;2022-12-20T03:30:17;13.57;;;6.77;;
24279;SDS011;12395;42.808;23.408;2022-12-20T03:32:43;12.13;;;5.93;;
24279;SDS011;12395;42.808;23.408;2022-12-20T03:35:08;12.47;;;6.13;;
24279;SDS011;12395;42.808;23.408;2022-12-20T03:37:33;14.60;;;6.20;;
24279;SDS011;12395;42.808;23.408;2022-12-20T03:39:59;14.23;;;6.57;;
24279;SDS011;12395;42.808;23.408;2022-12-20T03:42:24;12.87;;;6.53;;
24279;SDS011;12395;42.808;23.408;2022-12-20T03:44:50;13.90;;;6.00;;
24279;SDS011;12395;42.808;23.408;2022-12-20T03:47:15;15.90;;;6.83;;
24279;SDS011;12395;42.808;23.408;2022-12-20T03:49:41;14.13;;;6.00;;
24279;SDS011;12395;42.808;23.408;2022-12-20T03:52:06;15.43;;;6.00;;
24279;SDS011;12395;42.808;23.408;2022-12-20T03:54:31;14.03;;;6.03;;
24279;SDS011;12395;42.808;23.408;2022-12-20T03:56:57;15.37;;;6.77;;
24279;SDS011;12395;42.808;23.408;2022-12-20T03:59:22;13.47;;;6.97;;
24279;SDS011;12395;42.808;23.408;2022-12-20T04:01:48;14.33;;;6.90;;
24279;SDS011;12395;42.808;23.408;2022-12-20T04:04:13;14.17;;;6.47;;
24279;SDS011;12395;42.808;23.408;2022-12-20T04:06:39;15.33;;;7.00;;
24279;SDS011;12395;42.808;23.408;2022-12-20T04:09:06;14.77;;;6.63;;
24279;SDS011;12395;42.808;23.408;2022-12-20T04:11:31;15.23;;;7.00;;
24279;SDS011;12395;42.808;23.408;2022-12-20T04:13:56;14.80;;;7.07;;
24279;SDS011;12395;42.808;23.408;2022-12-20T04:16:23;18.87;;;6.67;;
24279;SDS011;12395;42.808;23.408;2022-12-20T04:18:50;14.83;;;6.50;;
24279;SDS011;12395;42.808;23.408;2022-12-20T04:21:20;16.77;;;6.87;;
24279;SDS011;12395;42.808;23.408;2022-12-20T04:23:47;15.03;;;6.43;;
24279;SDS011;12395;42.808;23.408;2022-12-20T04:26:12;13.17;;;6.13;;
24279;SDS011;12395;42.808;23.408;2022-12-20T04:28:38;13.30;;;6.40;;
24279;SDS011;12395;42.808;23.408;2022-12-20T04:31:03;14.00;;;6.53;;
24279;SDS011;12395;42.808;23.408;2022-12-20T04:33:29;13.87;;;6.23;;
24279;SDS011;12395;42.808;23.408;2022-12-20T04:35:54;13.47;;;6.13;;
24279;SDS011;12395;42.808;23.408;2022-12-20T04:38:20;14.53;;;6.53;;
24279;SDS011;12395;42.808;23.408;2022-12-20T04:40:50;14.10;;;6.40;;
24279;SDS011;12395;42.808;23.408;2022-12-20T04:43:17;13.53;;;6.33;;
24279;SDS011;12395;42.808;23.408;2022-12-20T04:45:43;13.20;;;6.07;;
24279;SDS011;12395;42.808;23.408;2022-12-20T04:48:09;15.67;;;6.97;;
24279;SDS011;12395;42.808;23.408;2022-12-20T04:50:35;17.27;;;7.67;;
24279;SDS011;12395;42.808;23.408;2022-12-20T04:53:01;15.00;;;7.07;;
24279;SDS011;12395;42.808;23.408;2022-12-20T04:55:45;16.10;;;6.93;;
24279;SDS011;12395;42.808;23.408;2022-12-20T04:58:10;19.00;;;7.70;;
24279;SDS011;12395;42.808;23.408;2022-12-20T05:00:36;17.03;;;7.67;;
24279;SDS011;12395;42.808;23.408;2022-12-20T05:03:01;16.50;;;7.03;;
24279;SDS011;12395;42.808;23.408;2022-12-20T05:05:27;18.03;;;7.73;;
24279;SDS011;12395;42.808;23.408;2022-12-20T05:07:52;17.90;;;7.77;;
24279;SDS011;12395;42.808;23.408;2022-12-20T05:10:18;16.13;;;7.10;;
24279;SDS011;12395;42.808;23.408;2022-12-20T05:12:44;18.17;;;7.87;;
24279;SDS011;12395;42.808;23.408;2022-12-20T05:15:10;17.87;;;7.70;;
24279;SDS011;12395;42.808;23.408;2022-12-20T05:17:35;18.03;;;8.00;;
24279;SDS011;12395;42.808;23.408;2022-12-20T05:20:01;17.17;;;7.57;;
24279;SDS011;12395;42.808;23.408;2022-12-20T05:22:27;17.83;;;7.43;;
24279;SDS011;12395;42.808;23.408;2022-12-20T05:25:12;16.13;;;7.33;;
24279;SDS011;12395;42.808;23.408;2022-12-20T05:27:56;15.77;;;7.67;;
24279;SDS011;12395;42.808;23.408;2022-12-20T05:30:22;17.10;;;7.33;;
24279;SDS011;12395;42.808;23.408;2022-12-20T05:32:47;15.70;;;7.00;;
24279;SDS011;12395;42.808;23.408;2022-12-20T05:35:13;17.43;;;7.33;;
24279;SDS011;12395;42.808;23.408;2022-12-20T05:37:38;16.40;;;7.57;;
24279;SDS011;12395;42.808;23.408;2022-12-20T05:40:04;16.73;;;7.43;;
24279;SDS011;12395;42.808;23.408;2022-12-20T05:42:30;16.80;;;7.50;;
24279;SDS011;12395;42.808;23.408;2022-12-20T05:44:56;17.57;;;7.30;;
24279;SDS011;12395;42.808;23.408;2022-12-20T05:47:21;18.00;;;6.93;;
24279;SDS011;12395;42.808;23.408;2022-12-20T05:49:46;15.03;;;6.87;;
24279;SDS011;12395;42.808;23.408;2022-12-20T05:52:12;16.17;;;7.03;;
24279;SDS011;12395;42.808;23.408;2022-12-20T05:54:37;15.50;;;6.97;;
24279;SDS011;12395;42.808;23.408;2022-12-20T05:57:03;15.43;;;6.70;;
24279;SDS011;12395;42.808;23.408;2022-12-20T05:59:28;14.10;;;6.57;;
24279;SDS011;12395;42.808;23.408;2022-12-20T06:01:53;14.97;;;6.60;;
24279;SDS011;12395;42.808;23.408;2022-12-20T06:04:19;12.57;;;6.07;;
24279;SDS011;12395;42.808;23.408;2022-12-20T06:06:45;16.33;;;7.10;;
24279;SDS011;12395;42.808;23.408;2022-12-20T06:09:10;12.73;;;6.07;;
24279;SDS011;12395;42.808;23.408;2022-12-20T06:11:36;15.40;;;7.23;;
24279;SDS011;12395;42.808;23.408;2022-12-20T06:14:02;16.87;;;7.00;;
24279;SDS011;12395;42.808;23.408;2022-12-20T06:16:27;14.53;;;6.73;;
24279;SDS011;12395;42.808;23.408;2022-12-20T06:18:53;15.70;;;7.03;;
24279;SDS011;12395;42.808;23.408;2022-12-20T06:21:18;14.50;;;6.47;;
24279;SDS011;12395;42.808;23.408;2022-12-20T06:23:44;14.63;;;7.00;;
24279;SDS011;12395;42.808;23.408;2022-12-20T06:26:09;17.20;;;7.90;;
24279;SDS011;12395;42.808;23.408;2022-12-20T06:28:35;17.17;;;7.63;;
24279;SDS011;12395;42.808;23.408;2022-12-20T06:31:06;17.20;;;7.40;;
24279;SDS011;12395;42.808;23.408;2022-12-20T06:33:33;18.33;;;7.40;;
24279;SDS011;12395;42.808;23.408;2022-12-20T06:36:00;15.57;;;7.13;;
24279;SDS011;12395;42.808;23.408;2022-12-20T06:38:25;14.93;;;7.13;;
24279;SDS011;12395;42.808;23.408;2022-12-20T06:40:50;19.83;;;7.30;;
24279;SDS011;12395;42.808;23.408;2022-12-20T06:43:16;17.47;;;6.60;;
24279;SDS011;12395;42.808;23.408;2022-12-20T06:45:41;16.07;;;6.80;;
24279;SDS011;12395;42.808;23.408;2022-12-20T06:48:07;15.67;;;6.70;;
24279;SDS011;12395;42.808;23.408;2022-12-20T06:50:32;18.47;;;6.80;;
24279;SDS011;12395;42.808;23.408;2022-12-20T06:52:58;16.53;;;7.00;;
24279;SDS011;12395;42.808;23.408;2022-12-20T06:55:23;17.33;;;6.70;;
24279;SDS011;12395;42.808;23.408;2022-12-20T06:57:49;16.30;;;6.87;;
24279;SDS011;12395;42.808;23.408;2022-12-20T07:00:15;16.33;;;6.53;;
24279;SDS011;12395;42.808;23.408;2022-12-20T07:02:41;17.13;;;7.40;;
24279;SDS011;12395;42.808;23.408;2022-12-20T07:05:06;19.50;;;7.77;;
24279;SDS011;12395;42.808;23.408;2022-12-20T07:07:32;16.07;;;7.07;;
24279;SDS011;12395;42.808;23.408;2022-12-20T07:09:57;17.03;;;7.27;;
24279;SDS011;12395;42.808;23.408;2022-12-20T07:12:23;15.20;;;7.80;;
24279;SDS011;12395;42.808;23.408;2022-12-20T07:14:48;15.63;;;7.10;;
24279;SDS011;12395;42.808;23.408;2022-12-20T07:17:14;16.60;;;7.40;;
24279;SDS011;12395;42.808;23.408;2022-12-20T07:19:39;16.97;;;7.07;;
24279;SDS011;12395;42.808;23.408;2022-12-20T07:22:05;14.07;;;6.60;;
24279;SDS011;12395;42.808;23.408;2022-12-20T07:24:55;15.10;;;7.10;;
24279;SDS011;12395;42.808;23.408;2022-12-20T07:27:23;16.97;;;7.37;;
24279;SDS011;12395;42.808;23.408;2022-12-20T07:29:49;17.33;;;7.63;;
24279;SDS011;12395;42.808;23.408;2022-12-20T07:32:15;15.30;;;7.10;;
24279;SDS011;12395;42.808;23.408;2022-12-20T07:34:41;16.83;;;7.40;;
24279;SDS011;12395;42.808;23.408;2022-12-20T07:37:06;15.97;;;7.10;;
24279;SDS011;12395;42.808;23.408;2022-12-20T07:39:32;16.30;;;7.40;;
24279;SDS011;12395;42.808;23.408;2022-12-20T07:41:58;16.67;;;7.10;;
24279;SDS011;12395;42.808;23.408;2022-12-20T07:44:23;16.93;;;7.83;;
24279;SDS011;12395;42.808;23.408;2022-12-20T07:46:49;18.77;;;8.13;;
24279;SDS011;12395;42.808;23.408;2022-12-20T07:49:14;16.37;;;7.77;;
24279;SDS011;12395;42.808;23.408;2022-12-20T07:51:41;17.60;;;8.20;;
24279;SDS011;12395;42.808;23.408;2022-12-20T07:54:21;17.07;;;7.63;;
24279;SDS011;12395;42.808;23.408;2022-12-20T07:56:49;15.73;;;7.23;;
24279;SDS011;12395;42.808;23.408;2022-12-20T07:59:20;17.03;;;7.33;;
24279;SDS011;12395;42.808;23.408;2022-12-20T08:01:51;16.33;;;8.03;;
24279;SDS011;12395;42.808;23.408;2022-12-20T08:04:18;16.77;;;7.60;;
24279;SDS011;12395;42.808;23.408;2022-12-20T08:06:49;14.00;;;7.10;;
24279;SDS011;12395;42.808;23.408;2022-12-20T08:09:16;17.10;;;7.28;;
24279;SDS011;12395;42.808;23.408;2022-12-20T08:11:42;16.43;;;7.87;;
24279;SDS011;12395;42.808;23.408;2022-12-20T08:14:10;16.90;;;7.77;;
24279;SDS011;12395;42.808;23.408;2022-12-20T08:16:36;17.20;;;7.67;;
24279;SDS011;12395;42.808;23.408;2022-12-20T08:19:01;17.60;;;7.73;;
24279;SDS011;12395;42.808;23.408;2022-12-20T08:21:27;16.50;;;7.73;;
24279;SDS011;12395;42.808;23.408;2022-12-20T08:23:53;17.27;;;7.90;;
24279;SDS011;12395;42.808;23.408;2022-12-20T08:26:19;15.90;;;7.97;;
24279;SDS011;12395;42.808;23.408;2022-12-20T08:28:44;17.50;;;8.13;;
24279;SDS011;12395;42.808;23.408;2022-12-20T08:31:10;20.27;;;8.53;;
24279;SDS011;12395;42.808;23.408;2022-12-20T08:33:36;15.67;;;7.00;;
24279;SDS011;12395;42.808;23.408;2022-12-20T08:36:04;15.97;;;7.33;;
24279;SDS011;12395;42.808;23.408;2022-12-20T08:38:31;17.83;;;7.43;;
24279;SDS011;12395;42.808;23.408;2022-12-20T08:41:01;16.17;;;7.73;;
24279;SDS011;12395;42.808;23.408;2022-12-20T08:43:29;13.67;;;6.83;;
24279;SDS011;12395;42.808;23.408;2022-12-20T08:45:55;16.33;;;7.77;;
24279;SDS011;12395;42.808;23.408;2022-12-20T08:48:20;17.30;;;7.70;;
24279;SDS011;12395;42.808;23.408;2022-12-20T08:50:47;16.03;;;7.43;;
24279;SDS011;12395;42.808;23.408;2022-12-20T08:53:17;14.40;;;6.77;;
24279;SDS011;12395;42.808;23.408;2022-12-20T08:55:43;14.73;;;6.93;;
24279;SDS011;12395;42.808;23.408;2022-12-20T08:58:08;14.13;;;7.13;;
24279;SDS011;12395;42.808;23.408;2022-12-20T09:00:34;17.00;;;7.43;;
24279;SDS011;12395;42.808;23.408;2022-12-20T09:03:00;13.47;;;6.67;;
24279;SDS011;12395;42.808;23.408;2022-12-20T09:05:25;15.60;;;7.30;;
24279;SDS011;12395;42.808;23.408;2022-12-20T09:07:51;17.37;;;7.30;;
24279;SDS011;12395;42.808;23.408;2022-12-20T09:10:16;15.67;;;6.87;;
24279;SDS011;12395;42.808;23.408;2022-12-20T09:12:42;15.63;;;7.00;;
24279;SDS011;12395;42.808;23.408;2022-12-20T09:15:07;14.43;;;6.63;;
24279;SDS011;12395;42.808;23.408;2022-12-20T09:17:34;14.00;;;6.90;;
24279;SDS011;12395;42.808;23.408;2022-12-20T09:19:59;15.60;;;7.23;;
24279;SDS011;12395;42.808;23.408;2022-12-20T09:22:27;14.90;;;7.03;;
24279;SDS011;12395;42.808;23.408;2022-12-20T09:24:53;13.10;;;6.47;;
24279;SDS011;12395;42.808;23.408;2022-12-20T09:27:18;14.27;;;6.50;;
24279;SDS011;12395;42.808;23.408;2022-12-20T09:29:43;13.87;;;6.90;;
24279;SDS011;12395;42.808;23.408;2022-12-20T09:32:09;13.50;;;6.17;;
24279;SDS011;12395;42.808;23.408;2022-12-20T09:34:34;13.07;;;6.60;;
24279;SDS011;12395;42.808;23.408;2022-12-20T09:36:59;14.03;;;6.70;;
24279;SDS011;12395;42.808;23.408;2022-12-20T09:39:25;14.33;;;6.93;;
24279;SDS011;12395;42.808;23.408;2022-12-20T09:41:50;13.90;;;6.83;;
24279;SDS011;12395;42.808;23.408;2022-12-20T09:44:23;13.70;;;6.30;;
24279;SDS011;12395;42.808;23.408;2022-12-20T09:46:55;14.10;;;6.57;;
24279;SDS011;12395;42.808;23.408;2022-12-20T09:49:25;13.30;;;6.57;;
24279;SDS011;12395;42.808;23.408;2022-12-20T10:00:21;13.70;;;6.20;;
24279;SDS011;12395;42.808;23.408;2022-12-20T10:02:47;13.00;;;6.10;;
24279;SDS011;12395;42.808;23.408;2022-12-20T10:05:18;14.10;;;6.10;;
24279;SDS011;12395;42.808;23.408;2022-12-20T10:08:23;13.47;;;6.80;;
24279;SDS011;12395;42.808;23.408;2022-12-20T10:11:10;16.87;;;6.90;;
24279;SDS011;12395;42.808;23.408;2022-12-20T10:16:48;12.27;;;6.13;;
24279;SDS011;12395;42.808;23.408;2022-12-20T10:22:43;12.20;;;6.40;;
24279;SDS011;12395;42.808;23.408;2022-12-20T10:25:19;13.10;;;6.23;;
24279;SDS011;12395;42.808;23.408;2022-12-20T10:27:50;12.77;;;6.10;;
24279;SDS011;12395;42.808;23.408;2022-12-20T10:30:21;12.90;;;6.00;;
24279;SDS011;12395;42.808;23.408;2022-12-20T10:32:49;12.15;;;5.82;;
24279;SDS011;12395;42.808;23.408;2022-12-20T10:35:24;11.97;;;5.97;;
24279;SDS011;12395;42.808;23.408;2022-12-20T10:40:24;11.80;;;5.80;;
24279;SDS011;12395;42.808;23.408;2022-12-20T10:42:52;13.00;;;6.00;;
24279;SDS011;12395;42.808;23.408;2022-12-20T10:47:51;11.70;;;6.00;;
24279;SDS011;12395;42.808;23.408;2022-12-20T10:50:23;10.07;;;5.60;;
24279;SDS011;12395;42.808;23.408;2022-12-20T10:55:43;11.33;;;5.60;;
24279;SDS011;12395;42.808;23.408;2022-12-20T10:58:16;11.73;;;5.53;;
24279;SDS011;12395;42.808;23.408;2022-12-20T11:01:03;13.40;;;6.27;;
24279;SDS011;12395;42.808;23.408;2022-12-20T11:03:48;11.73;;;6.07;;
24279;SDS011;12395;42.808;23.408;2022-12-20T11:06:16;12.27;;;5.73;;
24279;SDS011;12395;42.808;23.408;2022-12-20T11:08:42;11.65;;;5.80;;
24279;SDS011;12395;42.808;23.408;2022-12-20T11:11:12;11.53;;;5.70;;
24279;SDS011;12395;42.808;23.408;2022-12-20T11:13:47;13.07;;;5.87;;
24279;SDS011;12395;42.808;23.408;2022-12-20T11:16:27;10.63;;;5.63;;
24279;SDS011;12395;42.808;23.408;2022-12-20T11:19:01;9.47;;;5.40;;
24279;SDS011;12395;42.808;23.408;2022-12-20T11:24:08;11.23;;;5.53;;
24279;SDS011;12395;42.808;23.408;2022-12-20T11:38:47;11.10;;;5.07;;
24279;SDS011;12395;42.808;23.408;2022-12-20T11:41:37;9.05;;;4.57;;
24279;SDS011;12395;42.808;23.408;2022-12-20T11:54:42;11.27;;;5.68;;
24279;SDS011;12395;42.808;23.408;2022-12-20T11:57:12;9.37;;;4.87;;
24279;SDS011;12395;42.808;23.408;2022-12-20T11:59:45;11.13;;;4.82;;
24279;SDS011;12395;42.808;23.408;2022-12-20T12:05:04;10.33;;;4.73;;
24279;SDS011;12395;42.808;23.408;2022-12-20T12:07:37;9.87;;;4.63;;
24279;SDS011;12395;42.808;23.408;2022-12-20T12:10:12;8.77;;;4.60;;
24279;SDS011;12395;42.808;23.408;2022-12-20T12:12:42;8.33;;;4.50;;
24279;SDS011;12395;42.808;23.408;2022-12-20T12:15:16;9.30;;;4.40;;
24279;SDS011;12395;42.808;23.408;2022-12-20T12:17:52;9.30;;;4.23;;
24279;SDS011;12395;42.808;23.408;2022-12-20T12:23:28;7.88;;;4.20;;
24279;SDS011;12395;42.808;23.408;2022-12-20T12:25:54;9.30;;;4.80;;
24279;SDS011;12395;42.808;23.408;2022-12-20T12:28:21;10.13;;;4.73;;
24279;SDS011;12395;42.808;23.408;2022-12-20T12:30:50;9.85;;;5.30;;
24279;SDS011;12395;42.808;23.408;2022-12-20T12:33:30;8.70;;;4.47;;
24279;SDS011;12395;42.808;23.408;2022-12-20T12:46:44;9.27;;;4.47;;
24279;SDS011;12395;42.808;23.408;2022-12-20T12:49:16;9.00;;;4.60;;
24279;SDS011;12395;42.808;23.408;2022-12-20T12:51:49;10.35;;;4.70;;
24279;SDS011;12395;42.808;23.408;2022-12-20T12:56:52;8.05;;;4.20;;
24279;SDS011;12395;42.808;23.408;2022-12-20T13:04:51;11.73;;;4.70;;
24279;SDS011;12395;42.808;23.408;2022-12-20T13:07:26;8.57;;;4.50;;
24279;SDS011;12395;42.808;23.408;2022-12-20T13:09:52;9.23;;;4.72;;
24279;SDS011;12395;42.808;23.408;2022-12-20T13:12:45;9.05;;;4.43;;
24279;SDS011;12395;42.808;23.408;2022-12-20T13:20:21;9.15;;;4.50;;
24279;SDS011;12395;42.808;23.408;2022-12-20T13:31:26;8.05;;;4.28;;
24279;SDS011;12395;42.808;23.408;2022-12-20T13:36:03;8.07;;;4.47;;
24279;SDS011;12395;42.808;23.408;2022-12-20T13:41:00;8.52;;;4.35;;
24279;SDS011;12395;42.808;23.408;2022-12-20T13:43:45;9.68;;;4.72;;
24279;SDS011;12395;42.808;23.408;2022-12-20T13:46:12;8.50;;;4.28;;
24279;SDS011;12395;42.808;23.408;2022-12-20T13:48:52;9.55;;;4.40;;
24279;SDS011;12395;42.808;23.408;2022-12-20T13:51:23;8.57;;;4.22;;
24279;SDS011;12395;42.808;23.408;2022-12-20T13:53:54;7.70;;;3.97;;
24279;SDS011;12395;42.808;23.408;2022-12-20T13:58:52;8.73;;;4.25;;
24279;SDS011;12395;42.808;23.408;2022-12-20T14:01:19;8.63;;;4.47;;
24279;SDS011;12395;42.808;23.408;2022-12-20T14:03:47;8.32;;;4.38;;
24279;SDS011;12395;42.808;23.408;2022-12-20T14:06:13;9.20;;;4.28;;
24279;SDS011;12395;42.808;23.408;2022-12-20T14:08:43;8.23;;;4.40;;
24279;SDS011;12395;42.808;23.408;2022-12-20T14:11:14;10.20;;;4.80;;
24279;SDS011;12395;42.808;23.408;2022-12-20T14:13:50;9.90;;;4.80;;
24279;SDS011;12395;42.808;23.408;2022-12-20T14:16:18;10.75;;;5.00;;
24279;SDS011;12395;42.808;23.408;2022-12-20T14:19:03;10.33;;;5.80;;
24279;SDS011;12395;42.808;23.408;2022-12-20T14:21:30;11.47;;;5.43;;
24279;SDS011;12395;42.808;23.408;2022-12-20T14:24:00;11.82;;;5.78;;
24279;SDS011;12395;42.808;23.408;2022-12-20T14:26:28;10.43;;;5.27;;
24279;SDS011;12395;42.808;23.408;2022-12-20T14:28:57;11.30;;;5.20;;
24279;SDS011;12395;42.808;23.408;2022-12-20T14:31:26;10.83;;;5.30;;
24279;SDS011;12395;42.808;23.408;2022-12-20T14:34:05;8.45;;;4.82;;
24279;SDS011;12395;42.808;23.408;2022-12-20T14:36:47;9.07;;;4.57;;
24279;SDS011;12395;42.808;23.408;2022-12-20T14:44:31;8.83;;;4.70;;
24279;SDS011;12395;42.808;23.408;2022-12-20T14:46:58;12.70;;;5.30;;
24279;SDS011;12395;42.808;23.408;2022-12-20T14:54:41;8.63;;;4.88;;
24279;SDS011;12395;42.808;23.408;2022-12-20T14:57:10;11.53;;;5.40;;
24279;SDS011;12395;42.808;23.408;2022-12-20T14:59:44;10.50;;;4.63;;
24279;SDS011;12395;42.808;23.408;2022-12-20T15:10:53;10.20;;;5.37;;
24279;SDS011;12395;42.808;23.408;2022-12-20T15:13:35;11.40;;;5.43;;
24279;SDS011;12395;42.808;23.408;2022-12-20T15:16:12;9.70;;;4.77;;
24279;SDS011;12395;42.808;23.408;2022-12-20T15:18:39;13.57;;;5.00;;
24279;SDS011;12395;42.808;23.408;2022-12-20T15:23:48;10.57;;;4.87;;
24279;SDS011;12395;42.808;23.408;2022-12-20T15:26:16;10.63;;;4.72;;
24279;SDS011;12395;42.808;23.408;2022-12-20T15:28:43;10.85;;;4.95;;
24279;SDS011;12395;42.808;23.408;2022-12-20T15:31:10;11.77;;;5.17;;
24279;SDS011;12395;42.808;23.408;2022-12-20T15:33:37;12.60;;;4.83;;
24279;SDS011;12395;42.808;23.408;2022-12-20T15:36:04;10.52;;;5.10;;
24279;SDS011;12395;42.808;23.408;2022-12-20T15:38:30;12.70;;;5.50;;
24279;SDS011;12395;42.808;23.408;2022-12-20T15:40:58;13.60;;;5.73;;
24279;SDS011;12395;42.808;23.408;2022-12-20T15:43:28;13.03;;;5.33;;
24279;SDS011;12395;42.808;23.408;2022-12-20T15:46:06;10.38;;;5.50;;
24279;SDS011;12395;42.808;23.408;2022-12-20T15:48:31;11.53;;;5.07;;
24279;SDS011;12395;42.808;23.408;2022-12-20T15:50:57;11.43;;;5.13;;
24279;SDS011;12395;42.808;23.408;2022-12-20T15:53:24;11.60;;;5.50;;
24279;SDS011;12395;42.808;23.408;2022-12-20T15:55:53;12.87;;;6.07;;
24279;SDS011;12395;42.808;23.408;2022-12-20T15:58:20;12.30;;;6.03;;
24279;SDS011;12395;42.808;23.408;2022-12-20T16:00:47;13.03;;;5.73;;
24279;SDS011;12395;42.808;23.408;2022-12-20T16:03:13;12.70;;;5.60;;
24279;SDS011;12395;42.808;23.408;2022-12-20T16:05:41;12.60;;;5.60;;
24279;SDS011;12395;42.808;23.408;2022-12-20T16:08:06;13.33;;;6.07;;
24279;SDS011;12395;42.808;23.408;2022-12-20T16:10:32;12.20;;;5.50;;
24279;SDS011;12395;42.808;23.408;2022-12-20T16:12:58;10.97;;;5.60;;
24279;SDS011;12395;42.808;23.408;2022-12-20T16:15:23;13.97;;;6.23;;
24279;SDS011;12395;42.808;23.408;2022-12-20T16:17:49;11.90;;;5.60;;
24279;SDS011;12395;42.808;23.408;2022-12-20T16:20:15;12.73;;;5.77;;
24279;SDS011;12395;42.808;23.408;2022-12-20T16:22:41;12.40;;;5.67;;
24279;SDS011;12395;42.808;23.408;2022-12-20T16:25:08;12.07;;;5.47;;
24279;SDS011;12395;42.808;23.408;2022-12-20T16:27:49;12.10;;;5.33;;
24279;SDS011;12395;42.808;23.408;2022-12-20T16:30:15;13.40;;;5.63;;
24279;SDS011;12395;42.808;23.408;2022-12-20T16:32:40;9.87;;;5.13;;
24279;SDS011;12395;42.808;23.408;2022-12-20T16:35:09;11.80;;;5.60;;
24279;SDS011;12395;42.808;23.408;2022-12-20T16:37:47;11.57;;;5.20;;